Time;durP1;ratioP1;P1;durP2;ratioP2;P2;SDS_P1;SDS_P2;PMS_P1;PMS_P2;Temp;Humidity;BMP_temperature;BMP_pressure;BME280_temperature;BME280_humidity;BME280_pressure;Samples;Min_cycle;Max_cycle;Signal;HPM_P1;HPM_P2
2022/11/13 00:03:27;;;;;;;125.47;118.30;;;;;;;;;;10201367;28;20046;-66
2022/11/13 00:08:24;;;;;;;124.97;117.63;;;;;;;;;;10202996;28;20657;-66
2022/11/13 00:13:20;;;;;;;125.93;118.25;;;;;;;;;;10204279;28;20037;-66
2022/11/13 00:18:24;;;;;;;123.55;116.13;;;;;;;;;;10193612;28;20039;-66
2022/11/13 00:23:21;;;;;;;122.05;114.75;;;;;;;;;;10182711;28;20058;-66
2022/11/13 00:28:17;;;;;;;122.72;115.70;;;;;;;;;;10190652;28;20039;-66
2022/11/13 00:33:13;;;;;;;120.57;113.72;;;;;;;;;;10188280;28;20510;-66
2022/11/13 00:38:30;;;;;;;127.70;120.38;;;;;;;;;;10192252;28;20038;-66
2022/11/13 00:43:26;;;;;;;123.55;116.63;;;;;;;;;;10194898;28;20049;-66
2022/11/13 00:48:22;;;;;;;121.28;114.38;;;;;;;;;;10172501;28;20314;-66
2022/11/13 00:53:18;;;;;;;120.50;113.68;;;;;;;;;;10198663;28;20413;-66
2022/11/13 00:58:15;;;;;;;119.20;112.50;;;;;;;;;;10197176;28;20051;-66
2022/11/13 01:03:12;;;;;;;122.75;115.50;;;;;;;;;;10189107;28;20042;-66
2022/11/13 01:08:08;;;;;;;123.88;116.78;;;;;;;;;;10198433;28;20048;-66
2022/11/13 01:13:05;;;;;;;121.03;114.20;;;;;;;;;;10210903;28;20046;-66
2022/11/13 01:18:01;;;;;;;120.15;113.25;;;;;;;;;;10189932;28;20049;-66
2022/11/13 01:22:57;;;;;;;115.40;108.78;;;;;;;;;;10190363;28;20037;-66
2022/11/13 01:27:54;;;;;;;119.60;112.70;;;;;;;;;;10185001;28;20049;-66
2022/11/13 01:32:50;;;;;;;122.45;115.35;;;;;;;;;;10192256;28;20049;-66
2022/11/13 01:37:46;;;;;;;121.63;114.63;;;;;;;;;;10201300;28;20431;-66
2022/11/13 01:42:42;;;;;;;122.40;115.13;;;;;;;;;;10203729;28;20060;-66
2022/11/13 01:47:38;;;;;;;122.93;115.63;;;;;;;;;;10208034;28;20052;-66
2022/11/13 01:52:37;;;;;;;122.88;115.78;;;;;;;;;;10205097;28;20068;-66
2022/11/13 01:57:34;;;;;;;119.47;112.35;;;;;;;;;;10189870;28;20422;-66
2022/11/13 02:02:30;;;;;;;126.05;118.90;;;;;;;;;;10207864;28;20132;-65
2022/11/13 02:07:27;;;;;;;120.55;113.13;;;;;;;;;;10190278;28;20420;-66
2022/11/13 02:12:30;;;;;;;117.95;111.13;;;;;;;;;;10204729;28;20067;-66
2022/11/13 02:17:52;;;;;;;120.05;113.07;;;;;;;;;;10189683;28;20049;-66
2022/11/13 02:23:07;;;;;;;121.88;114.93;;;;;;;;;;10193926;28;20120;-65
2022/11/13 02:28:03;;;;;;;115.68;108.60;;;;;;;;;;10191618;28;20048;-66
2022/11/13 02:33:00;;;;;;;125.45;117.78;;;;;;;;;;10192478;28;20448;-66
2022/11/13 02:37:58;;;;;;;119.90;112.70;;;;;;;;;;10208101;28;20509;-66
2022/11/13 02:42:54;;;;;;;127.05;119.68;;;;;;;;;;10189370;28;20049;-66
2022/11/13 02:47:50;;;;;;;127.22;119.65;;;;;;;;;;10211731;28;20057;-66
2022/11/13 02:52:47;;;;;;;128.38;120.43;;;;;;;;;;10195381;28;20072;-66
2022/11/13 02:57:43;;;;;;;128.23;120.63;;;;;;;;;;10208545;28;20107;-66
2022/11/13 03:02:39;;;;;;;126.28;118.68;;;;;;;;;;10206027;28;20052;-66
2022/11/13 03:07:36;;;;;;;127.53;119.70;;;;;;;;;;10190407;28;20395;-66
2022/11/13 03:12:32;;;;;;;126.07;118.70;;;;;;;;;;10214575;28;20042;-66
2022/11/13 03:17:32;;;;;;;128.70;121.10;;;;;;;;;;10198508;28;20425;-66
2022/11/13 03:22:28;;;;;;;122.93;115.60;;;;;;;;;;10207789;28;20777;-66
2022/11/13 03:27:24;;;;;;;125.78;118.07;;;;;;;;;;10197581;28;20056;-66
2022/11/13 03:32:20;;;;;;;125.00;117.13;;;;;;;;;;10216162;28;20053;-66
2022/11/13 03:37:17;;;;;;;123.85;116.32;;;;;;;;;;10210523;28;20412;-66
2022/11/13 03:42:14;;;;;;;120.07;112.88;;;;;;;;;;10211323;28;20416;-66
2022/11/13 03:47:10;;;;;;;120.97;113.70;;;;;;;;;;10186930;28;20612;-66
2022/11/13 03:52:06;;;;;;;122.28;114.68;;;;;;;;;;10191128;28;20042;-66
2022/11/13 03:57:03;;;;;;;124.28;116.63;;;;;;;;;;10196130;28;20048;-66
2022/11/13 04:01:59;;;;;;;126.22;118.57;;;;;;;;;;10206557;28;20045;-66
2022/11/13 04:06:55;;;;;;;123.20;115.45;;;;;;;;;;10193610;28;20037;-66
2022/11/13 04:11:51;;;;;;;125.45;117.75;;;;;;;;;;10199790;28;20077;-65
2022/11/13 04:16:47;;;;;;;127.25;119.18;;;;;;;;;;10201327;28;20042;-66
2022/11/13 04:21:44;;;;;;;130.48;121.95;;;;;;;;;;10186636;28;20050;-66
2022/11/13 04:26:40;;;;;;;125.85;118.05;;;;;;;;;;10188269;28;20049;-66
2022/11/13 04:31:36;;;;;;;132.43;124.13;;;;;;;;;;10187612;28;20061;-66
2022/11/13 04:36:32;;;;;;;124.38;116.90;;;;;;;;;;10198956;28;20050;-66
2022/11/13 04:46:50;;;;;;;133.18;125.00;;;;;;;;;;10189039;28;20049;-66
2022/11/13 04:51:46;;;;;;;127.05;119.07;;;;;;;;;;10208411;28;20355;-66
2022/11/13 04:56:42;;;;;;;131.10;123.07;;;;;;;;;;10199678;28;20049;-66
2022/11/13 05:01:39;;;;;;;133.82;125.53;;;;;;;;;;10182557;28;20042;-66
2022/11/13 05:06:35;;;;;;;132.88;124.85;;;;;;;;;;10186575;28;20174;-66
2022/11/13 05:11:31;;;;;;;132.55;124.18;;;;;;;;;;10190803;28;20129;-66
2022/11/13 05:16:27;;;;;;;133.85;125.68;;;;;;;;;;10189365;28;20121;-66
2022/11/13 05:21:24;;;;;;;131.00;122.35;;;;;;;;;;10195232;28;20056;-66
2022/11/13 05:26:20;;;;;;;134.35;126.03;;;;;;;;;;10201980;28;20064;-66
2022/11/13 05:31:16;;;;;;;135.77;127.22;;;;;;;;;;10198276;28;20038;-66
2022/11/13 05:36:14;;;;;;;130.70;122.50;;;;;;;;;;10202538;28;20048;-66
2022/11/13 05:41:17;;;;;;;133.00;124.88;;;;;;;;;;10197065;28;20117;-66
2022/11/13 05:46:15;;;;;;;131.52;123.32;;;;;;;;;;10188439;28;20053;-66
2022/11/13 05:51:16;;;;;;;134.40;125.53;;;;;;;;;;10215676;28;20056;-66
2022/11/13 05:56:15;;;;;;;132.32;124.03;;;;;;;;;;10201565;28;20041;-66
2022/11/13 06:01:13;;;;;;;128.52;120.32;;;;;;;;;;10212629;28;20065;-66
2022/11/13 06:06:10;;;;;;;136.07;126.72;;;;;;;;;;10197976;28;20054;-66
2022/11/13 06:11:08;;;;;;;135.43;126.57;;;;;;;;;;10198900;28;20172;-66
2022/11/13 06:16:05;;;;;;;135.10;126.10;;;;;;;;;;10196630;28;20049;-66
2022/11/13 06:21:06;;;;;;;134.48;125.90;;;;;;;;;;10199507;28;20045;-66
2022/11/13 06:26:06;;;;;;;130.93;122.45;;;;;;;;;;10201503;28;20050;-66
2022/11/13 06:31:03;;;;;;;138.20;129.07;;;;;;;;;;10181881;28;20065;-65
2022/11/13 06:36:03;;;;;;;137.27;128.13;;;;;;;;;;10198021;28;20042;-66
2022/11/13 06:41:00;;;;;;;136.98;127.90;;;;;;;;;;10209561;28;20045;-65
2022/11/13 06:45:56;;;;;;;141.52;132.10;;;;;;;;;;10186528;28;20038;-65
2022/11/13 06:50:53;;;;;;;141.13;131.80;;;;;;;;;;10202366;28;20067;-66
2022/11/13 06:55:49;;;;;;;141.52;132.35;;;;;;;;;;10199138;28;20053;-66
2022/11/13 07:00:46;;;;;;;143.90;134.40;;;;;;;;;;10206925;28;20124;-66
2022/11/13 07:05:42;;;;;;;147.15;137.55;;;;;;;;;;10193321;28;20046;-65
2022/11/13 07:10:39;;;;;;;146.20;136.77;;;;;;;;;;10204956;28;20050;-66
2022/11/13 07:15:36;;;;;;;142.80;133.27;;;;;;;;;;10187893;28;20424;-66
2022/11/13 07:20:33;;;;;;;143.32;133.52;;;;;;;;;;10195613;28;20046;-66
2022/11/13 07:25:29;;;;;;;143.98;133.98;;;;;;;;;;10203110;28;20046;-66
2022/11/13 07:30:25;;;;;;;145.18;135.52;;;;;;;;;;10191633;28;20046;-66
2022/11/13 07:35:22;;;;;;;144.02;134.38;;;;;;;;;;10195400;28;20049;-66
2022/11/13 07:40:18;;;;;;;148.65;138.35;;;;;;;;;;10191175;28;20056;-65
2022/11/13 07:45:14;;;;;;;149.25;138.93;;;;;;;;;;10193578;28;20053;-66
2022/11/13 07:50:10;;;;;;;147.77;137.45;;;;;;;;;;10198852;28;20049;-66
2022/11/13 07:55:07;;;;;;;148.00;137.65;;;;;;;;;;10195445;28;20045;-66
2022/11/13 08:00:03;;;;;;;148.07;137.75;;;;;;;;;;10199422;28;20075;-66
2022/11/13 08:04:59;;;;;;;151.50;141.27;;;;;;;;;;10197675;28;20076;-66
2022/11/13 08:09:56;;;;;;;151.10;140.38;;;;;;;;;;10190463;28;20053;-65
2022/11/13 08:14:52;;;;;;;151.25;140.48;;;;;;;;;;10187133;28;20065;-66
2022/11/13 08:19:48;;;;;;;154.68;143.82;;;;;;;;;;10201104;28;20048;-66
2022/11/13 08:24:44;;;;;;;155.82;144.75;;;;;;;;;;10199176;28;20534;-66
2022/11/13 08:29:40;;;;;;;160.70;148.60;;;;;;;;;;10195716;28;20052;-66
2022/11/13 08:34:37;;;;;;;156.20;145.15;;;;;;;;;;10183874;28;20084;-66
2022/11/13 08:39:36;;;;;;;161.40;149.93;;;;;;;;;;10183851;28;20061;-66
2022/11/13 08:44:32;;;;;;;163.77;152.38;;;;;;;;;;10192548;28;20038;-66
2022/11/13 08:49:28;;;;;;;150.77;139.82;;;;;;;;;;10200429;28;20037;-67
2022/11/13 08:54:24;;;;;;;156.25;145.27;;;;;;;;;;10208601;28;20038;-66
2022/11/13 08:59:22;;;;;;;150.07;139.57;;;;;;;;;;10209022;28;20051;-66
2022/11/13 09:04:18;;;;;;;149.90;139.13;;;;;;;;;;10216659;28;20046;-65
2022/11/13 09:09:14;;;;;;;147.85;137.88;;;;;;;;;;10198545;28;20067;-66
2022/11/13 09:14:11;;;;;;;149.98;139.52;;;;;;;;;;10201816;28;20398;-66
2022/11/13 09:19:07;;;;;;;144.40;134.20;;;;;;;;;;10205202;28;20042;-66
2022/11/13 09:24:05;;;;;;;145.48;134.70;;;;;;;;;;10198527;28;20108;-66
2022/11/13 09:29:01;;;;;;;145.35;135.10;;;;;;;;;;10212839;28;20139;-66
2022/11/13 09:33:57;;;;;;;138.65;129.05;;;;;;;;;;10203044;28;20045;-66
2022/11/13 09:38:53;;;;;;;143.07;132.98;;;;;;;;;;10219332;28;20037;-66
2022/11/13 09:43:52;;;;;;;139.65;130.07;;;;;;;;;;10220651;28;20133;-66
2022/11/13 09:48:57;;;;;;;136.80;127.22;;;;;;;;;;10205194;28;20049;-66
2022/11/13 09:53:54;;;;;;;142.30;132.80;;;;;;;;;;10213662;28;20047;-66
2022/11/13 09:58:50;;;;;;;141.27;131.45;;;;;;;;;;10192044;28;20046;-66
2022/11/13 10:03:49;;;;;;;136.57;127.25;;;;;;;;;;10215703;28;20046;-65
2022/11/13 10:09:09;;;;;;;132.55;123.70;;;;;;;;;;10195960;28;20124;-66
2022/11/13 10:14:17;;;;;;;129.50;120.70;;;;;;;;;;10193027;28;20054;-66
2022/11/13 10:19:16;;;;;;;131.82;123.38;;;;;;;;;;10195657;28;20529;-66
2022/11/13 10:24:21;;;;;;;128.25;119.82;;;;;;;;;;10203197;28;20052;-66
2022/11/13 10:29:18;;;;;;;123.47;115.47;;;;;;;;;;10206305;28;20050;-66
2022/11/13 10:34:15;;;;;;;119.53;111.60;;;;;;;;;;10200726;28;20124;-66
2022/11/13 10:39:12;;;;;;;110.72;102.75;;;;;;;;;;10205722;28;20057;-66
2022/11/13 10:44:20;;;;;;;117.47;109.55;;;;;;;;;;10208937;28;20709;-65
2022/11/13 10:49:27;;;;;;;108.82;101.70;;;;;;;;;;10196092;28;20503;-66
2022/11/13 10:54:25;;;;;;;115.93;108.15;;;;;;;;;;10206278;28;20134;-66
2022/11/13 10:59:22;;;;;;;118.13;110.28;;;;;;;;;;10183421;28;20046;-66
2022/11/13 11:04:18;;;;;;;115.70;107.55;;;;;;;;;;10210958;28;20046;-66
2022/11/13 11:09:29;;;;;;;116.15;108.55;;;;;;;;;;10192124;28;20054;-66
2022/11/13 11:14:28;;;;;;;116.07;108.28;;;;;;;;;;10188589;28;20411;-66
2022/11/13 11:19:26;;;;;;;114.93;106.97;;;;;;;;;;10186346;28;20053;-66
2022/11/13 11:24:25;;;;;;;117.97;109.75;;;;;;;;;;10185074;28;20410;-66
2022/11/13 11:29:27;;;;;;;120.80;112.50;;;;;;;;;;10189096;28;20052;-66
2022/11/13 11:34:32;;;;;;;122.72;114.18;;;;;;;;;;10187429;28;20449;-66
2022/11/13 11:39:39;;;;;;;119.82;111.72;;;;;;;;;;10200281;28;20061;-66
2022/11/13 11:44:41;;;;;;;129.65;120.95;;;;;;;;;;10183422;28;20062;-66
2022/11/13 11:49:37;;;;;;;123.50;115.43;;;;;;;;;;10200537;28;20512;-66
2022/11/13 11:54:41;;;;;;;122.43;114.60;;;;;;;;;;10196204;28;20079;-66
2022/11/13 11:59:40;;;;;;;120.88;113.03;;;;;;;;;;10196500;28;20046;-66
2022/11/13 12:04:54;;;;;;;119.70;112.10;;;;;;;;;;10206257;28;20052;-66
2022/11/13 12:10:05;;;;;;;115.47;108.55;;;;;;;;;;10197818;28;20084;-66
2022/11/13 12:15:05;;;;;;;113.57;106.72;;;;;;;;;;10191475;28;20046;-66
2022/11/13 12:20:20;;;;;;;111.85;104.90;;;;;;;;;;10198528;28;20045;-66
2022/11/13 12:25:40;;;;;;;106.15;99.63;;;;;;;;;;10199836;28;20042;-66
2022/11/13 12:30:36;;;;;;;98.60;92.18;;;;;;;;;;10186296;28;20513;-66
2022/11/13 12:35:33;;;;;;;98.95;92.43;;;;;;;;;;10196035;28;20077;-66
2022/11/13 12:40:35;;;;;;;95.63;89.72;;;;;;;;;;10192521;28;20508;-66
2022/11/13 12:45:45;;;;;;;96.85;90.28;;;;;;;;;;10184978;28;20422;-66
2022/11/13 12:50:41;;;;;;;99.00;93.00;;;;;;;;;;10199342;28;20051;-66
2022/11/13 12:55:38;;;;;;;94.30;88.45;;;;;;;;;;10176131;28;20058;-66
2022/11/13 13:00:36;;;;;;;96.35;90.35;;;;;;;;;;10195403;28;20046;-66
2022/11/13 13:05:48;;;;;;;93.78;88.07;;;;;;;;;;10194850;28;20046;-66
2022/11/13 13:10:44;;;;;;;83.88;78.68;;;;;;;;;;10179323;28;20430;-65
2022/11/13 13:16:03;;;;;;;85.95;80.75;;;;;;;;;;10188763;28;20050;-66
2022/11/13 13:20:59;;;;;;;87.20;81.80;;;;;;;;;;10194578;28;20075;-66
2022/11/13 13:26:02;;;;;;;85.45;79.93;;;;;;;;;;10196821;28;20042;-66
2022/11/13 13:31:01;;;;;;;85.33;79.77;;;;;;;;;;10206384;28;20053;-66
2022/11/13 13:36:10;;;;;;;77.07;72.38;;;;;;;;;;10187256;28;20465;-66
2022/11/13 13:41:22;;;;;;;79.82;75.05;;;;;;;;;;10213251;28;20452;-65
2022/11/13 13:46:22;;;;;;;78.90;74.10;;;;;;;;;;10199652;28;20087;-65
2022/11/13 13:51:25;;;;;;;85.72;80.38;;;;;;;;;;10210463;28;20501;-65
2022/11/13 13:56:22;;;;;;;89.05;83.43;;;;;;;;;;10202193;28;20042;-65
2022/11/13 14:01:44;;;;;;;87.75;82.25;;;;;;;;;;10211081;28;20049;-64
2022/11/13 14:06:48;;;;;;;80.75;75.07;;;;;;;;;;10195246;28;20050;-65
2022/11/13 14:11:46;;;;;;;85.03;79.47;;;;;;;;;;10201890;28;20130;-65
2022/11/13 14:16:46;;;;;;;82.28;77.07;;;;;;;;;;10197771;28;20042;-65
2022/11/13 14:21:47;;;;;;;90.90;84.95;;;;;;;;;;10200189;28;20422;-65
2022/11/13 14:26:44;;;;;;;92.18;85.68;;;;;;;;;;10189903;28;20503;-65
2022/11/13 14:31:40;;;;;;;91.10;85.10;;;;;;;;;;10209720;28;20042;-65
2022/11/13 14:36:37;;;;;;;91.63;85.45;;;;;;;;;;10203244;28;20236;-65
2022/11/13 14:41:36;;;;;;;93.80;87.45;;;;;;;;;;10207992;28;20045;-65
2022/11/13 14:46:36;;;;;;;101.15;94.25;;;;;;;;;;10196892;28;20050;-65
2022/11/13 14:51:33;;;;;;;93.95;87.00;;;;;;;;;;10192314;28;20053;-65
2022/11/13 14:56:33;;;;;;;98.53;91.72;;;;;;;;;;10193893;28;20042;-65
2022/11/13 15:01:31;;;;;;;102.18;94.78;;;;;;;;;;10200486;28;20044;-65
2022/11/13 15:06:33;;;;;;;98.10;90.90;;;;;;;;;;10192213;28;20038;-65
2022/11/13 15:11:30;;;;;;;99.35;92.35;;;;;;;;;;10180677;28;20046;-65
2022/11/13 15:16:27;;;;;;;103.28;96.03;;;;;;;;;;10183120;28;20042;-65
2022/11/13 15:21:24;;;;;;;99.10;92.32;;;;;;;;;;10188275;28;20041;-65
2022/11/13 15:26:20;;;;;;;99.85;93.35;;;;;;;;;;10198224;28;20052;-65
2022/11/13 15:31:19;;;;;;;105.05;98.30;;;;;;;;;;10195039;28;20056;-65
2022/11/13 15:36:15;;;;;;;100.38;94.07;;;;;;;;;;10193265;28;20045;-65
2022/11/13 15:41:17;;;;;;;106.65;99.97;;;;;;;;;;10210153;28;20045;-65
2022/11/13 15:46:15;;;;;;;105.15;98.90;;;;;;;;;;10202168;28;20038;-65
2022/11/13 15:51:22;;;;;;;104.20;98.07;;;;;;;;;;10199449;28;20045;-65
2022/11/13 15:56:19;;;;;;;101.10;95.20;;;;;;;;;;10196326;28;20516;-65
2022/11/13 16:01:15;;;;;;;100.88;95.22;;;;;;;;;;10204659;28;20041;-65
2022/11/13 16:06:13;;;;;;;100.07;94.28;;;;;;;;;;10193287;28;20511;-66
2022/11/13 16:11:17;;;;;;;101.50;95.63;;;;;;;;;;10202290;28;20058;-65
2022/11/13 16:16:18;;;;;;;102.22;96.32;;;;;;;;;;10196437;28;20064;-65
2022/11/13 16:21:15;;;;;;;99.72;94.03;;;;;;;;;;10196725;28;20045;-65
2022/11/13 16:26:13;;;;;;;103.47;97.70;;;;;;;;;;10200526;28;20049;-66
2022/11/13 16:31:10;;;;;;;106.40;100.38;;;;;;;;;;10200485;28;20046;-66
2022/11/13 16:36:13;;;;;;;100.25;94.45;;;;;;;;;;10206412;28;20056;-65
2022/11/13 16:41:10;;;;;;;105.97;99.88;;;;;;;;;;10205875;28;20038;-65
2022/11/13 16:46:19;;;;;;;103.70;97.45;;;;;;;;;;10198616;28;20052;-65
2022/11/13 16:51:15;;;;;;;103.32;97.43;;;;;;;;;;10193422;28;20134;-65
2022/11/13 16:56:11;;;;;;;112.68;105.97;;;;;;;;;;10185160;28;20045;-65
2022/11/13 17:01:12;;;;;;;108.88;102.47;;;;;;;;;;10199583;28;20050;-65
2022/11/13 17:06:23;;;;;;;116.25;109.57;;;;;;;;;;10188261;28;20084;-65
2022/11/13 17:11:20;;;;;;;111.65;105.15;;;;;;;;;;10203296;28;20041;-65
2022/11/13 17:16:17;;;;;;;112.57;106.10;;;;;;;;;;10205849;28;20065;-65
2022/11/13 17:21:14;;;;;;;111.82;105.18;;;;;;;;;;10208266;28;20045;-65
2022/11/13 17:26:10;;;;;;;110.53;104.03;;;;;;;;;;10209441;28;20041;-65
2022/11/13 17:31:07;;;;;;;114.38;107.82;;;;;;;;;;10213198;28;20041;-65
2022/11/13 17:36:03;;;;;;;117.13;110.28;;;;;;;;;;10209339;28;20077;-65
2022/11/13 17:41:04;;;;;;;113.47;106.78;;;;;;;;;;10194998;28;20057;-65
2022/11/13 17:46:01;;;;;;;111.50;104.70;;;;;;;;;;10199168;28;20444;-65
2022/11/13 17:50:58;;;;;;;113.60;107.03;;;;;;;;;;10198225;28;20116;-65
2022/11/13 17:55:55;;;;;;;113.50;106.70;;;;;;;;;;10209826;28;20064;-65
2022/11/13 18:00:52;;;;;;;117.53;110.72;;;;;;;;;;10208703;28;20502;-66
2022/11/13 18:05:48;;;;;;;118.32;111.45;;;;;;;;;;10199928;28;20049;-65
2022/11/13 18:10:44;;;;;;;122.72;115.68;;;;;;;;;;10197812;28;20725;-65
2022/11/13 18:15:41;;;;;;;119.05;112.10;;;;;;;;;;10184365;28;20046;-66
2022/11/13 18:20:38;;;;;;;125.10;117.88;;;;;;;;;;10204211;28;20061;-65
2022/11/13 18:25:34;;;;;;;121.72;114.70;;;;;;;;;;10181833;28;20065;-65
2022/11/13 18:30:36;;;;;;;120.70;113.80;;;;;;;;;;10192259;28;20050;-65
2022/11/13 18:35:33;;;;;;;119.75;112.90;;;;;;;;;;10198699;28;20042;-65
2022/11/13 18:40:29;;;;;;;118.65;112.00;;;;;;;;;;10210637;28;20134;-65
2022/11/13 18:45:25;;;;;;;120.20;113.40;;;;;;;;;;10199638;28;20073;-67
2022/11/13 18:50:22;;;;;;;125.68;118.57;;;;;;;;;;10195564;28;21764;-67
2022/11/13 18:55:18;;;;;;;121.10;114.28;;;;;;;;;;10199439;28;20048;-65
2022/11/13 19:00:15;;;;;;;119.57;112.85;;;;;;;;;;10206344;28;20041;-65
2022/11/13 19:05:11;;;;;;;110.97;104.70;;;;;;;;;;10198579;28;20042;-65
2022/11/13 19:10:07;;;;;;;108.53;102.38;;;;;;;;;;10192468;28;20049;-65
2022/11/13 19:15:06;;;;;;;103.55;97.70;;;;;;;;;;10186858;28;20049;-65
2022/11/13 19:20:02;;;;;;;100.63;94.93;;;;;;;;;;10199475;28;20481;-65
2022/11/13 19:24:59;;;;;;;93.18;87.70;;;;;;;;;;10191875;28;20045;-65
2022/11/13 19:29:55;;;;;;;90.00;84.85;;;;;;;;;;10211331;28;20057;-66
2022/11/13 19:34:51;;;;;;;93.10;87.50;;;;;;;;;;10202933;28;20429;-65
2022/11/13 19:39:47;;;;;;;89.13;83.82;;;;;;;;;;10197588;28;20045;-65
2022/11/13 19:44:44;;;;;;;96.07;90.15;;;;;;;;;;10207533;28;20042;-65
2022/11/13 19:49:40;;;;;;;92.72;87.10;;;;;;;;;;10196987;28;20630;-65
2022/11/13 19:54:37;;;;;;;89.55;84.18;;;;;;;;;;10202193;28;20521;-65
2022/11/13 19:59:33;;;;;;;90.63;85.10;;;;;;;;;;10189038;28;20062;-65
2022/11/13 20:04:29;;;;;;;84.95;79.68;;;;;;;;;;10204043;28;20506;-65
2022/11/13 20:09:27;;;;;;;91.25;85.35;;;;;;;;;;10197643;28;20041;-65
2022/11/13 20:14:23;;;;;;;78.38;72.68;;;;;;;;;;10193608;28;20056;-65
2022/11/13 20:19:19;;;;;;;75.00;69.85;;;;;;;;;;10192578;28;20034;-65
2022/11/13 20:24:16;;;;;;;69.53;64.43;;;;;;;;;;10202596;28;20044;-65
2022/11/13 20:29:12;;;;;;;71.07;65.70;;;;;;;;;;10203385;28;20050;-65
2022/11/13 20:34:09;;;;;;;61.47;57.17;;;;;;;;;;10192202;28;20052;-67
2022/11/13 20:39:05;;;;;;;66.97;62.08;;;;;;;;;;10196861;28;20038;-65
2022/11/13 20:44:04;;;;;;;63.85;59.25;;;;;;;;;;10185333;28;20042;-67
2022/11/13 20:49:01;;;;;;;65.43;60.85;;;;;;;;;;10190262;28;20046;-67
2022/11/13 20:53:57;;;;;;;70.63;65.40;;;;;;;;;;10191408;28;20446;-67
2022/11/13 20:58:53;;;;;;;71.05;65.75;;;;;;;;;;10190781;28;20044;-67
2022/11/13 21:03:50;;;;;;;68.47;63.45;;;;;;;;;;10203538;28;20046;-67
2022/11/13 21:08:47;;;;;;;68.55;63.30;;;;;;;;;;10194903;28;20430;-67
2022/11/13 21:13:43;;;;;;;67.18;61.97;;;;;;;;;;10195849;28;20824;-67
2022/11/13 21:18:40;;;;;;;66.90;62.10;;;;;;;;;;10186555;28;20069;-67
2022/11/13 21:23:36;;;;;;;67.07;61.88;;;;;;;;;;10197006;28;20046;-66
2022/11/13 21:28:33;;;;;;;71.95;66.57;;;;;;;;;;10185163;28;20042;-67
2022/11/13 21:33:34;;;;;;;68.97;63.75;;;;;;;;;;10197212;28;20038;-67
2022/11/13 21:38:30;;;;;;;66.78;61.70;;;;;;;;;;10193639;28;20569;-66
2022/11/13 21:43:27;;;;;;;71.63;66.43;;;;;;;;;;10184781;28;20050;-66
2022/11/13 21:48:23;;;;;;;73.18;68.00;;;;;;;;;;10208269;28;20053;-66
2022/11/13 21:53:23;;;;;;;67.30;62.45;;;;;;;;;;10207616;28;20067;-66
2022/11/13 21:58:27;;;;;;;69.40;63.88;;;;;;;;;;10199704;28;20153;-66
2022/11/13 22:03:24;;;;;;;74.55;68.85;;;;;;;;;;10204420;28;20508;-66
2022/11/13 22:08:20;;;;;;;72.78;67.50;;;;;;;;;;10215957;28;20046;-66
2022/11/13 22:13:16;;;;;;;72.88;67.43;;;;;;;;;;10199886;28;20042;-66
2022/11/13 22:18:14;;;;;;;77.43;71.68;;;;;;;;;;10202467;28;20140;-67
2022/11/13 22:23:10;;;;;;;77.95;72.15;;;;;;;;;;10205475;28;20050;-66
2022/11/13 22:28:06;;;;;;;76.13;70.15;;;;;;;;;;10194325;28;20057;-66
2022/11/13 22:33:03;;;;;;;71.07;65.72;;;;;;;;;;10193856;28;20054;-66
2022/11/13 22:38:00;;;;;;;76.32;70.63;;;;;;;;;;10208842;28;20034;-66
2022/11/13 22:42:56;;;;;;;77.13;71.72;;;;;;;;;;10202694;28;20042;-66
2022/11/13 22:47:53;;;;;;;75.28;69.65;;;;;;;;;;10184119;28;20045;-66
2022/11/13 22:52:50;;;;;;;71.38;66.18;;;;;;;;;;10196469;28;20042;-66
2022/11/13 22:57:46;;;;;;;71.70;66.18;;;;;;;;;;10199280;28;20601;-66
2022/11/13 23:02:43;;;;;;;71.85;65.70;;;;;;;;;;10203821;28;20052;-66
2022/11/13 23:07:42;;;;;;;69.40;63.92;;;;;;;;;;10195119;28;20041;-66
2022/11/13 23:12:39;;;;;;;71.60;65.78;;;;;;;;;;10201836;28;20049;-66
2022/11/13 23:17:35;;;;;;;68.15;62.90;;;;;;;;;;10192696;28;20425;-66
2022/11/13 23:22:31;;;;;;;68.28;62.42;;;;;;;;;;10195631;28;20038;-66
2022/11/13 23:27:27;;;;;;;70.75;65.07;;;;;;;;;;10196458;28;20465;-66
2022/11/13 23:32:23;;;;;;;67.32;61.83;;;;;;;;;;10207679;28;20049;-66
2022/11/13 23:37:20;;;;;;;63.95;58.22;;;;;;;;;;10199306;28;20041;-66
2022/11/13 23:42:16;;;;;;;68.43;62.80;;;;;;;;;;10206485;28;20439;-66
2022/11/13 23:47:32;;;;;;;67.05;61.20;;;;;;;;;;10175455;28;20045;-66
2022/11/13 23:52:28;;;;;;;65.32;59.88;;;;;;;;;;10203874;28;20179;-66
2022/11/13 23:57:25;;;;;;;68.50;62.15;;;;;;;;;;10191128;28;20132;-66
